sensor_id;sensor_type;location;lat;lon;timestamp;P1;durP1;ratioP1;P2;durP2;ratioP2
7683;SDS011;3884;48.616;12.872;2022-12-19T00:00:42;63.55;;;40.47;;
7683;SDS011;3884;48.616;12.872;2022-12-19T00:03:09;66.80;;;40.08;;
7683;SDS011;3884;48.616;12.872;2022-12-19T00:05:37;63.25;;;40.60;;
7683;SDS011;3884;48.616;12.872;2022-12-19T00:08:05;65.07;;;41.28;;
7683;SDS011;3884;48.616;12.872;2022-12-19T00:10:38;64.57;;;43.20;;
7683;SDS011;3884;48.616;12.872;2022-12-19T00:13:05;67.95;;;44.42;;
7683;SDS011;3884;48.616;12.872;2022-12-19T00:15:33;65.88;;;42.97;;
7683;SDS011;3884;48.616;12.872;2022-12-19T00:18:01;66.35;;;42.35;;
7683;SDS011;3884;48.616;12.872;2022-12-19T00:20:28;70.10;;;42.88;;
7683;SDS011;3884;48.616;12.872;2022-12-19T00:22:56;67.10;;;43.47;;
7683;SDS011;3884;48.616;12.872;2022-12-19T00:25:23;70.80;;;43.30;;
7683;SDS011;3884;48.616;12.872;2022-12-19T00:27:50;67.15;;;42.80;;
7683;SDS011;3884;48.616;12.872;2022-12-19T00:30:17;66.45;;;42.80;;
7683;SDS011;3884;48.616;12.872;2022-12-19T00:32:43;69.65;;;43.40;;
7683;SDS011;3884;48.616;12.872;2022-12-19T00:35:12;68.63;;;42.33;;
7683;SDS011;3884;48.616;12.872;2022-12-19T00:37:40;68.40;;;41.67;;
7683;SDS011;3884;48.616;12.872;2022-12-19T00:40:09;66.28;;;41.53;;
7683;SDS011;3884;48.616;12.872;2022-12-19T00:42:37;64.63;;;40.90;;
7683;SDS011;3884;48.616;12.872;2022-12-19T00:45:04;69.78;;;41.15;;
7683;SDS011;3884;48.616;12.872;2022-12-19T00:47:31;62.78;;;40.17;;
7683;SDS011;3884;48.616;12.872;2022-12-19T00:49:59;69.18;;;41.45;;
7683;SDS011;3884;48.616;12.872;2022-12-19T00:52:26;67.70;;;41.22;;
7683;SDS011;3884;48.616;12.872;2022-12-19T00:54:55;68.65;;;41.90;;
7683;SDS011;3884;48.616;12.872;2022-12-19T00:57:23;73.45;;;43.97;;
7683;SDS011;3884;48.616;12.872;2022-12-19T00:59:50;67.90;;;43.03;;
7683;SDS011;3884;48.616;12.872;2022-12-19T01:02:17;74.32;;;43.17;;
7683;SDS011;3884;48.616;12.872;2022-12-19T01:04:45;73.35;;;43.05;;
7683;SDS011;3884;48.616;12.872;2022-12-19T01:07:12;73.00;;;43.53;;
7683;SDS011;3884;48.616;12.872;2022-12-19T01:09:39;71.97;;;43.38;;
7683;SDS011;3884;48.616;12.872;2022-12-19T01:12:09;70.78;;;42.97;;
7683;SDS011;3884;48.616;12.872;2022-12-19T01:14:53;73.22;;;44.95;;
7683;SDS011;3884;48.616;12.872;2022-12-19T01:17:20;74.43;;;43.25;;
7683;SDS011;3884;48.616;12.872;2022-12-19T01:19:51;71.75;;;41.75;;
7683;SDS011;3884;48.616;12.872;2022-12-19T01:22:18;70.60;;;42.70;;
7683;SDS011;3884;48.616;12.872;2022-12-19T01:24:45;71.00;;;41.90;;
7683;SDS011;3884;48.616;12.872;2022-12-19T01:27:13;72.55;;;42.80;;
7683;SDS011;3884;48.616;12.872;2022-12-19T01:29:40;68.18;;;41.05;;
7683;SDS011;3884;48.616;12.872;2022-12-19T01:32:10;74.10;;;42.75;;
7683;SDS011;3884;48.616;12.872;2022-12-19T01:34:37;69.15;;;41.60;;
7683;SDS011;3884;48.616;12.872;2022-12-19T01:37:04;69.82;;;41.38;;
7683;SDS011;3884;48.616;12.872;2022-12-19T01:39:31;70.05;;;41.45;;
7683;SDS011;3884;48.616;12.872;2022-12-19T01:41:58;69.25;;;40.60;;
7683;SDS011;3884;48.616;12.872;2022-12-19T01:44:25;69.68;;;39.60;;
7683;SDS011;3884;48.616;12.872;2022-12-19T01:46:53;70.18;;;41.78;;
7683;SDS011;3884;48.616;12.872;2022-12-19T01:49:25;67.38;;;40.58;;
7683;SDS011;3884;48.616;12.872;2022-12-19T01:51:54;68.82;;;41.78;;
7683;SDS011;3884;48.616;12.872;2022-12-19T01:54:25;69.03;;;40.33;;
7683;SDS011;3884;48.616;12.872;2022-12-19T01:56:56;70.75;;;42.60;;
7683;SDS011;3884;48.616;12.872;2022-12-19T01:59:26;71.07;;;41.95;;
7683;SDS011;3884;48.616;12.872;2022-12-19T02:01:58;72.57;;;42.20;;
7683;SDS011;3884;48.616;12.872;2022-12-19T02:04:29;70.82;;;42.45;;
7683;SDS011;3884;48.616;12.872;2022-12-19T02:06:58;71.10;;;43.83;;
7683;SDS011;3884;48.616;12.872;2022-12-19T02:09:27;70.18;;;42.45;;
7683;SDS011;3884;48.616;12.872;2022-12-19T02:11:54;73.45;;;43.80;;
7683;SDS011;3884;48.616;12.872;2022-12-19T02:14:22;70.68;;;41.25;;
7683;SDS011;3884;48.616;12.872;2022-12-19T02:16:50;67.47;;;40.05;;
7683;SDS011;3884;48.616;12.872;2022-12-19T02:22:40;71.20;;;40.05;;
7683;SDS011;3884;48.616;12.872;2022-12-19T02:25:32;68.72;;;40.78;;
7683;SDS011;3884;48.616;12.872;2022-12-19T02:28:30;72.50;;;43.22;;
7683;SDS011;3884;48.616;12.872;2022-12-19T02:31:09;72.80;;;42.60;;
7683;SDS011;3884;48.616;12.872;2022-12-19T02:33:42;73.03;;;42.88;;
7683;SDS011;3884;48.616;12.872;2022-12-19T02:36:15;71.65;;;41.55;;
7683;SDS011;3884;48.616;12.872;2022-12-19T02:38:46;75.25;;;42.25;;
7683;SDS011;3884;48.616;12.872;2022-12-19T02:41:19;76.18;;;44.20;;
7683;SDS011;3884;48.616;12.872;2022-12-19T02:43:50;72.53;;;42.72;;
7683;SDS011;3884;48.616;12.872;2022-12-19T02:46:25;69.40;;;40.97;;
7683;SDS011;3884;48.616;12.872;2022-12-19T02:48:53;65.32;;;41.05;;
7683;SDS011;3884;48.616;12.872;2022-12-19T02:51:21;72.88;;;40.33;;
7683;SDS011;3884;48.616;12.872;2022-12-19T02:53:48;67.10;;;39.88;;
7683;SDS011;3884;48.616;12.872;2022-12-19T02:56:32;64.38;;;40.00;;
7683;SDS011;3884;48.616;12.872;2022-12-19T03:02:03;69.72;;;39.97;;
7683;SDS011;3884;48.616;12.872;2022-12-19T03:04:42;66.75;;;39.47;;
7683;SDS011;3884;48.616;12.872;2022-12-19T03:07:16;72.00;;;42.20;;
7683;SDS011;3884;48.616;12.872;2022-12-19T03:09:54;70.25;;;41.25;;
7683;SDS011;3884;48.616;12.872;2022-12-19T03:12:29;71.10;;;42.95;;
7683;SDS011;3884;48.616;12.872;2022-12-19T03:15:01;72.57;;;41.70;;
7683;SDS011;3884;48.616;12.872;2022-12-19T03:17:30;72.07;;;41.72;;
7683;SDS011;3884;48.616;12.872;2022-12-19T03:20:03;70.55;;;42.28;;
7683;SDS011;3884;48.616;12.872;2022-12-19T03:22:33;72.95;;;42.83;;
7683;SDS011;3884;48.616;12.872;2022-12-19T03:25:00;67.05;;;39.75;;
7683;SDS011;3884;48.616;12.872;2022-12-19T03:27:28;69.82;;;39.60;;
7683;SDS011;3884;48.616;12.872;2022-12-19T03:30:00;71.10;;;39.28;;
7683;SDS011;3884;48.616;12.872;2022-12-19T03:32:31;65.53;;;39.47;;
7683;SDS011;3884;48.616;12.872;2022-12-19T03:35:01;65.22;;;37.78;;
7683;SDS011;3884;48.616;12.872;2022-12-19T03:37:31;65.25;;;38.10;;
7683;SDS011;3884;48.616;12.872;2022-12-19T03:40:00;65.85;;;39.40;;
7683;SDS011;3884;48.616;12.872;2022-12-19T03:42:30;63.15;;;37.97;;
7683;SDS011;3884;48.616;12.872;2022-12-19T03:45:17;67.47;;;39.53;;
7683;SDS011;3884;48.616;12.872;2022-12-19T03:47:52;67.82;;;39.30;;
7683;SDS011;3884;48.616;12.872;2022-12-19T03:50:22;71.10;;;40.05;;
7683;SDS011;3884;48.616;12.872;2022-12-19T03:52:56;68.00;;;39.25;;
7683;SDS011;3884;48.616;12.872;2022-12-19T03:55:29;69.68;;;40.05;;
7683;SDS011;3884;48.616;12.872;2022-12-19T03:58:03;61.10;;;38.58;;
7683;SDS011;3884;48.616;12.872;2022-12-19T04:00:35;62.95;;;38.88;;
7683;SDS011;3884;48.616;12.872;2022-12-19T04:03:06;65.05;;;37.95;;
7683;SDS011;3884;48.616;12.872;2022-12-19T04:05:35;61.45;;;36.72;;
7683;SDS011;3884;48.616;12.872;2022-12-19T04:08:04;66.10;;;37.30;;
7683;SDS011;3884;48.616;12.872;2022-12-19T04:10:33;63.03;;;38.03;;
7683;SDS011;3884;48.616;12.872;2022-12-19T04:13:07;61.72;;;36.55;;
7683;SDS011;3884;48.616;12.872;2022-12-19T04:15:38;58.78;;;35.95;;
7683;SDS011;3884;48.616;12.872;2022-12-19T04:18:15;61.63;;;35.60;;
7683;SDS011;3884;48.616;12.872;2022-12-19T04:20:44;56.00;;;33.72;;
7683;SDS011;3884;48.616;12.872;2022-12-19T04:23:19;60.53;;;35.38;;
7683;SDS011;3884;48.616;12.872;2022-12-19T04:25:49;56.22;;;34.25;;
7683;SDS011;3884;48.616;12.872;2022-12-19T04:28:21;59.10;;;34.08;;
7683;SDS011;3884;48.616;12.872;2022-12-19T04:30:52;59.22;;;34.45;;
7683;SDS011;3884;48.616;12.872;2022-12-19T04:33:21;59.65;;;32.88;;
7683;SDS011;3884;48.616;12.872;2022-12-19T04:35:48;57.80;;;35.25;;
7683;SDS011;3884;48.616;12.872;2022-12-19T04:38:14;56.30;;;33.97;;
7683;SDS011;3884;48.616;12.872;2022-12-19T04:40:41;56.38;;;33.33;;
7683;SDS011;3884;48.616;12.872;2022-12-19T04:43:08;58.55;;;34.80;;
7683;SDS011;3884;48.616;12.872;2022-12-19T04:45:35;56.95;;;32.33;;
7683;SDS011;3884;48.616;12.872;2022-12-19T04:48:02;54.15;;;33.25;;
7683;SDS011;3884;48.616;12.872;2022-12-19T04:50:32;58.53;;;34.97;;
7683;SDS011;3884;48.616;12.872;2022-12-19T04:52:59;55.45;;;33.03;;
7683;SDS011;3884;48.616;12.872;2022-12-19T04:55:26;56.00;;;34.58;;
7683;SDS011;3884;48.616;12.872;2022-12-19T04:57:53;54.60;;;31.65;;
7683;SDS011;3884;48.616;12.872;2022-12-19T05:00:20;51.17;;;32.13;;
7683;SDS011;3884;48.616;12.872;2022-12-19T05:02:47;50.88;;;32.88;;
7683;SDS011;3884;48.616;12.872;2022-12-19T05:05:14;55.20;;;32.08;;
7683;SDS011;3884;48.616;12.872;2022-12-19T05:07:44;57.15;;;35.03;;
7683;SDS011;3884;48.616;12.872;2022-12-19T05:10:12;63.65;;;40.92;;
7683;SDS011;3884;48.616;12.872;2022-12-19T05:12:39;62.22;;;35.78;;
7683;SDS011;3884;48.616;12.872;2022-12-19T05:15:06;58.05;;;32.65;;
7683;SDS011;3884;48.616;12.872;2022-12-19T05:17:34;51.15;;;32.55;;
7683;SDS011;3884;48.616;12.872;2022-12-19T05:20:01;58.67;;;31.80;;
7683;SDS011;3884;48.616;12.872;2022-12-19T05:22:28;63.55;;;35.75;;
7683;SDS011;3884;48.616;12.872;2022-12-19T05:24:57;57.97;;;34.10;;
7683;SDS011;3884;48.616;12.872;2022-12-19T05:27:24;55.35;;;33.97;;
7683;SDS011;3884;48.616;12.872;2022-12-19T05:29:51;56.97;;;35.42;;
7683;SDS011;3884;48.616;12.872;2022-12-19T05:32:17;59.33;;;36.08;;
7683;SDS011;3884;48.616;12.872;2022-12-19T05:34:44;56.83;;;34.70;;
7683;SDS011;3884;48.616;12.872;2022-12-19T05:37:11;54.13;;;32.10;;
7683;SDS011;3884;48.616;12.872;2022-12-19T05:39:38;52.97;;;32.55;;
7683;SDS011;3884;48.616;12.872;2022-12-19T05:42:06;51.15;;;31.45;;
7683;SDS011;3884;48.616;12.872;2022-12-19T05:44:33;55.33;;;32.15;;
7683;SDS011;3884;48.616;12.872;2022-12-19T05:47:01;57.13;;;35.95;;
7683;SDS011;3884;48.616;12.872;2022-12-19T05:49:28;65.70;;;41.95;;
7683;SDS011;3884;48.616;12.872;2022-12-19T05:51:54;55.97;;;36.03;;
7683;SDS011;3884;48.616;12.872;2022-12-19T05:54:21;57.92;;;38.30;;
7683;SDS011;3884;48.616;12.872;2022-12-19T05:56:48;63.53;;;37.03;;
7683;SDS011;3884;48.616;12.872;2022-12-19T05:59:17;63.08;;;38.17;;
7683;SDS011;3884;48.616;12.872;2022-12-19T06:01:45;61.22;;;37.05;;
7683;SDS011;3884;48.616;12.872;2022-12-19T06:04:12;58.90;;;37.05;;
7683;SDS011;3884;48.616;12.872;2022-12-19T06:06:38;60.90;;;36.55;;
7683;SDS011;3884;48.616;12.872;2022-12-19T06:09:05;55.97;;;34.50;;
7683;SDS011;3884;48.616;12.872;2022-12-19T06:11:32;58.05;;;35.35;;
7683;SDS011;3884;48.616;12.872;2022-12-19T06:13:59;57.72;;;36.25;;
7683;SDS011;3884;48.616;12.872;2022-12-19T06:16:27;60.05;;;36.78;;
7683;SDS011;3884;48.616;12.872;2022-12-19T06:18:54;63.05;;;37.80;;
7683;SDS011;3884;48.616;12.872;2022-12-19T06:21:21;61.35;;;37.22;;
7683;SDS011;3884;48.616;12.872;2022-12-19T06:23:49;63.47;;;36.30;;
7683;SDS011;3884;48.616;12.872;2022-12-19T06:26:17;64.10;;;37.97;;
7683;SDS011;3884;48.616;12.872;2022-12-19T06:28:45;64.95;;;39.47;;
7683;SDS011;3884;48.616;12.872;2022-12-19T06:31:12;64.72;;;37.72;;
7683;SDS011;3884;48.616;12.872;2022-12-19T06:33:41;64.85;;;37.70;;
7683;SDS011;3884;48.616;12.872;2022-12-19T06:36:10;65.53;;;38.40;;
7683;SDS011;3884;48.616;12.872;2022-12-19T06:38:41;64.75;;;39.55;;
7683;SDS011;3884;48.616;12.872;2022-12-19T06:41:08;62.55;;;39.25;;
7683;SDS011;3884;48.616;12.872;2022-12-19T06:43:55;63.88;;;37.80;;
7683;SDS011;3884;48.616;12.872;2022-12-19T06:46:23;64.30;;;38.03;;
7683;SDS011;3884;48.616;12.872;2022-12-19T06:48:51;61.58;;;37.50;;
7683;SDS011;3884;48.616;12.872;2022-12-19T06:51:18;65.32;;;38.10;;
7683;SDS011;3884;48.616;12.872;2022-12-19T06:53:46;67.10;;;40.10;;
7683;SDS011;3884;48.616;12.872;2022-12-19T06:56:13;63.90;;;36.85;;
7683;SDS011;3884;48.616;12.872;2022-12-19T06:58:41;62.47;;;36.50;;
7683;SDS011;3884;48.616;12.872;2022-12-19T07:01:14;60.95;;;37.65;;
7683;SDS011;3884;48.616;12.872;2022-12-19T07:03:42;57.28;;;35.38;;
7683;SDS011;3884;48.616;12.872;2022-12-19T07:06:13;57.22;;;35.08;;
7683;SDS011;3884;48.616;12.872;2022-12-19T07:08:39;53.70;;;35.15;;
7683;SDS011;3884;48.616;12.872;2022-12-19T07:11:07;54.67;;;35.15;;
7683;SDS011;3884;48.616;12.872;2022-12-19T07:13:34;56.78;;;35.50;;
7683;SDS011;3884;48.616;12.872;2022-12-19T07:16:01;58.33;;;35.90;;
7683;SDS011;3884;48.616;12.872;2022-12-19T07:18:29;61.70;;;36.63;;
7683;SDS011;3884;48.616;12.872;2022-12-19T07:20:59;61.67;;;38.65;;
7683;SDS011;3884;48.616;12.872;2022-12-19T07:23:28;54.58;;;34.58;;
7683;SDS011;3884;48.616;12.872;2022-12-19T07:25:55;53.28;;;34.60;;
7683;SDS011;3884;48.616;12.872;2022-12-19T07:28:22;52.80;;;33.55;;
7683;SDS011;3884;48.616;12.872;2022-12-19T07:30:50;51.33;;;32.83;;
7683;SDS011;3884;48.616;12.872;2022-12-19T07:33:17;55.20;;;33.38;;
7683;SDS011;3884;48.616;12.872;2022-12-19T07:35:44;60.00;;;32.67;;
7683;SDS011;3884;48.616;12.872;2022-12-19T07:38:11;57.20;;;33.22;;
7683;SDS011;3884;48.616;12.872;2022-12-19T07:40:39;54.85;;;34.40;;
7683;SDS011;3884;48.616;12.872;2022-12-19T07:43:06;53.28;;;31.38;;
7683;SDS011;3884;48.616;12.872;2022-12-19T07:45:34;59.07;;;32.70;;
7683;SDS011;3884;48.616;12.872;2022-12-19T07:48:03;59.17;;;33.17;;
7683;SDS011;3884;48.616;12.872;2022-12-19T07:50:31;55.08;;;33.15;;
7683;SDS011;3884;48.616;12.872;2022-12-19T07:52:59;59.67;;;32.73;;
7683;SDS011;3884;48.616;12.872;2022-12-19T07:55:26;57.15;;;33.22;;
7683;SDS011;3884;48.616;12.872;2022-12-19T07:57:55;57.38;;;35.05;;
7683;SDS011;3884;48.616;12.872;2022-12-19T08:00:22;58.17;;;34.15;;
7683;SDS011;3884;48.616;12.872;2022-12-19T08:02:49;57.97;;;34.88;;
7683;SDS011;3884;48.616;12.872;2022-12-19T08:05:16;55.63;;;31.23;;
7683;SDS011;3884;48.616;12.872;2022-12-19T08:07:43;56.60;;;32.33;;
7683;SDS011;3884;48.616;12.872;2022-12-19T08:10:10;58.03;;;34.08;;
7683;SDS011;3884;48.616;12.872;2022-12-19T08:12:38;55.77;;;33.00;;
7683;SDS011;3884;48.616;12.872;2022-12-19T08:15:07;60.38;;;38.10;;
7683;SDS011;3884;48.616;12.872;2022-12-19T08:17:35;67.23;;;40.80;;
7683;SDS011;3884;48.616;12.872;2022-12-19T08:20:03;54.63;;;33.00;;
7683;SDS011;3884;48.616;12.872;2022-12-19T08:22:30;54.20;;;35.07;;
7683;SDS011;3884;48.616;12.872;2022-12-19T08:24:57;54.33;;;34.83;;
7683;SDS011;3884;48.616;12.872;2022-12-19T08:27:25;53.43;;;32.30;;
7683;SDS011;3884;48.616;12.872;2022-12-19T08:29:52;50.83;;;31.53;;
7683;SDS011;3884;48.616;12.872;2022-12-19T08:32:20;51.57;;;31.63;;
7683;SDS011;3884;48.616;12.872;2022-12-19T08:34:47;50.57;;;31.83;;
7683;SDS011;3884;48.616;12.872;2022-12-19T08:37:15;51.40;;;31.00;;
7683;SDS011;3884;48.616;12.872;2022-12-19T08:39:42;51.27;;;32.13;;
7683;SDS011;3884;48.616;12.872;2022-12-19T08:42:09;53.67;;;33.20;;
7683;SDS011;3884;48.616;12.872;2022-12-19T08:44:36;47.63;;;30.57;;
7683;SDS011;3884;48.616;12.872;2022-12-19T08:47:03;48.43;;;30.40;;
7683;SDS011;3884;48.616;12.872;2022-12-19T08:49:31;49.13;;;30.30;;
7683;SDS011;3884;48.616;12.872;2022-12-19T08:51:58;53.63;;;31.33;;
7683;SDS011;3884;48.616;12.872;2022-12-19T08:54:25;47.13;;;29.13;;
7683;SDS011;3884;48.616;12.872;2022-12-19T08:56:52;53.43;;;34.07;;
7683;SDS011;3884;48.616;12.872;2022-12-19T08:59:19;50.47;;;31.90;;
7683;SDS011;3884;48.616;12.872;2022-12-19T09:01:46;50.77;;;32.97;;
7683;SDS011;3884;48.616;12.872;2022-12-19T09:04:13;49.00;;;31.77;;
7683;SDS011;3884;48.616;12.872;2022-12-19T09:06:41;53.40;;;29.97;;
7683;SDS011;3884;48.616;12.872;2022-12-19T09:09:08;53.00;;;32.00;;
7683;SDS011;3884;48.616;12.872;2022-12-19T09:11:35;56.20;;;33.70;;
7683;SDS011;3884;48.616;12.872;2022-12-19T09:14:02;52.57;;;33.10;;
7683;SDS011;3884;48.616;12.872;2022-12-19T09:16:30;51.90;;;31.63;;
7683;SDS011;3884;48.616;12.872;2022-12-19T09:18:56;48.30;;;30.03;;
7683;SDS011;3884;48.616;12.872;2022-12-19T09:21:26;52.03;;;31.93;;
7683;SDS011;3884;48.616;12.872;2022-12-19T09:23:56;49.27;;;30.47;;
7683;SDS011;3884;48.616;12.872;2022-12-19T09:26:24;47.17;;;29.50;;
7683;SDS011;3884;48.616;12.872;2022-12-19T09:28:52;52.17;;;32.20;;
7683;SDS011;3884;48.616;12.872;2022-12-19T09:31:20;46.43;;;30.00;;
7683;SDS011;3884;48.616;12.872;2022-12-19T09:33:48;52.97;;;31.83;;
7683;SDS011;3884;48.616;12.872;2022-12-19T09:36:16;52.73;;;31.70;;
7683;SDS011;3884;48.616;12.872;2022-12-19T09:38:44;48.63;;;31.33;;
7683;SDS011;3884;48.616;12.872;2022-12-19T09:44:19;53.27;;;32.83;;
7683;SDS011;3884;48.616;12.872;2022-12-19T09:46:56;56.83;;;34.87;;
7683;SDS011;3884;48.616;12.872;2022-12-19T09:49:26;49.20;;;32.27;;
7683;SDS011;3884;48.616;12.872;2022-12-19T09:51:56;52.63;;;32.20;;
7683;SDS011;3884;48.616;12.872;2022-12-19T09:54:31;48.23;;;30.63;;
7683;SDS011;3884;48.616;12.872;2022-12-19T09:57:03;47.00;;;31.90;;
7683;SDS011;3884;48.616;12.872;2022-12-19T09:59:37;50.10;;;31.40;;
7683;SDS011;3884;48.616;12.872;2022-12-19T10:02:13;47.40;;;31.03;;
7683;SDS011;3884;48.616;12.872;2022-12-19T10:04:50;43.23;;;28.63;;
7683;SDS011;3884;48.616;12.872;2022-12-19T10:07:22;49.53;;;31.33;;
7683;SDS011;3884;48.616;12.872;2022-12-19T10:09:49;50.50;;;31.40;;
7683;SDS011;3884;48.616;12.872;2022-12-19T10:12:20;50.13;;;31.83;;
7683;SDS011;3884;48.616;12.872;2022-12-19T10:15:01;50.43;;;31.67;;
7683;SDS011;3884;48.616;12.872;2022-12-19T10:17:33;49.07;;;30.83;;
7683;SDS011;3884;48.616;12.872;2022-12-19T10:20:15;48.47;;;31.03;;
7683;SDS011;3884;48.616;12.872;2022-12-19T10:22:50;49.27;;;31.00;;
7683;SDS011;3884;48.616;12.872;2022-12-19T10:25:28;48.93;;;33.27;;
7683;SDS011;3884;48.616;12.872;2022-12-19T10:28:08;48.47;;;30.73;;
7683;SDS011;3884;48.616;12.872;2022-12-19T10:30:44;49.83;;;31.90;;
7683;SDS011;3884;48.616;12.872;2022-12-19T10:33:19;49.57;;;31.33;;
7683;SDS011;3884;48.616;12.872;2022-12-19T10:35:52;46.80;;;30.60;;
7683;SDS011;3884;48.616;12.872;2022-12-19T10:38:23;48.23;;;31.67;;
7683;SDS011;3884;48.616;12.872;2022-12-19T10:41:03;51.17;;;31.80;;
7683;SDS011;3884;48.616;12.872;2022-12-19T10:43:43;47.70;;;30.40;;
7683;SDS011;3884;48.616;12.872;2022-12-19T10:46:16;50.00;;;31.20;;
7683;SDS011;3884;48.616;12.872;2022-12-19T10:48:49;49.00;;;30.57;;
7683;SDS011;3884;48.616;12.872;2022-12-19T10:51:20;49.43;;;31.53;;
7683;SDS011;3884;48.616;12.872;2022-12-19T10:53:53;48.80;;;31.27;;
7683;SDS011;3884;48.616;12.872;2022-12-19T10:56:22;48.87;;;31.63;;
7683;SDS011;3884;48.616;12.872;2022-12-19T10:58:52;49.57;;;30.33;;
7683;SDS011;3884;48.616;12.872;2022-12-19T11:01:23;50.43;;;31.77;;
7683;SDS011;3884;48.616;12.872;2022-12-19T11:03:52;52.63;;;33.40;;
7683;SDS011;3884;48.616;12.872;2022-12-19T11:06:49;51.03;;;32.53;;
7683;SDS011;3884;48.616;12.872;2022-12-19T11:09:27;47.93;;;30.97;;
7683;SDS011;3884;48.616;12.872;2022-12-19T11:11:56;48.93;;;31.83;;
7683;SDS011;3884;48.616;12.872;2022-12-19T11:14:27;44.47;;;30.40;;
7683;SDS011;3884;48.616;12.872;2022-12-19T11:16:56;48.97;;;31.63;;
7683;SDS011;3884;48.616;12.872;2022-12-19T11:19:27;45.37;;;30.20;;
7683;SDS011;3884;48.616;12.872;2022-12-19T11:21:56;47.87;;;30.53;;
7683;SDS011;3884;48.616;12.872;2022-12-19T11:24:27;43.73;;;28.37;;
7683;SDS011;3884;48.616;12.872;2022-12-19T11:26:59;47.93;;;30.13;;
7683;SDS011;3884;48.616;12.872;2022-12-19T11:29:35;46.17;;;29.83;;
7683;SDS011;3884;48.616;12.872;2022-12-19T11:32:19;44.53;;;29.83;;
7683;SDS011;3884;48.616;12.872;2022-12-19T11:34:51;45.17;;;29.67;;
7683;SDS011;3884;48.616;12.872;2022-12-19T11:37:27;44.30;;;29.23;;
7683;SDS011;3884;48.616;12.872;2022-12-19T11:40:02;44.50;;;29.00;;
7683;SDS011;3884;48.616;12.872;2022-12-19T11:42:32;45.63;;;29.37;;
7683;SDS011;3884;48.616;12.872;2022-12-19T11:45:06;46.23;;;30.57;;
7683;SDS011;3884;48.616;12.872;2022-12-19T11:47:41;43.30;;;29.17;;
7683;SDS011;3884;48.616;12.872;2022-12-19T11:50:14;43.07;;;28.90;;
7683;SDS011;3884;48.616;12.872;2022-12-19T11:52:48;44.07;;;28.83;;
7683;SDS011;3884;48.616;12.872;2022-12-19T11:55:21;42.97;;;29.17;;
7683;SDS011;3884;48.616;12.872;2022-12-19T11:57:51;43.83;;;28.63;;
7683;SDS011;3884;48.616;12.872;2022-12-19T12:00:21;45.07;;;30.53;;
7683;SDS011;3884;48.616;12.872;2022-12-19T12:02:53;43.73;;;28.90;;
7683;SDS011;3884;48.616;12.872;2022-12-19T12:05:41;44.67;;;29.80;;
7683;SDS011;3884;48.616;12.872;2022-12-19T12:11:07;45.87;;;28.90;;
7683;SDS011;3884;48.616;12.872;2022-12-19T12:13:50;45.77;;;30.03;;
7683;SDS011;3884;48.616;12.872;2022-12-19T12:16:33;41.50;;;29.03;;
7683;SDS011;3884;48.616;12.872;2022-12-19T12:19:10;44.80;;;29.50;;
7683;SDS011;3884;48.616;12.872;2022-12-19T12:21:46;42.13;;;28.90;;
7683;SDS011;3884;48.616;12.872;2022-12-19T12:24:20;44.87;;;29.70;;
7683;SDS011;3884;48.616;12.872;2022-12-19T12:26:57;42.33;;;29.20;;
7683;SDS011;3884;48.616;12.872;2022-12-19T12:29:36;41.00;;;27.73;;
7683;SDS011;3884;48.616;12.872;2022-12-19T12:32:17;43.20;;;28.97;;
7683;SDS011;3884;48.616;12.872;2022-12-19T12:34:58;41.83;;;28.47;;
7683;SDS011;3884;48.616;12.872;2022-12-19T12:37:38;39.90;;;27.57;;
7683;SDS011;3884;48.616;12.872;2022-12-19T12:40:15;39.80;;;27.27;;
7683;SDS011;3884;48.616;12.872;2022-12-19T12:43:08;41.63;;;26.47;;
7683;SDS011;3884;48.616;12.872;2022-12-19T12:45:46;41.50;;;27.27;;
7683;SDS011;3884;48.616;12.872;2022-12-19T12:48:19;41.50;;;27.23;;
7683;SDS011;3884;48.616;12.872;2022-12-19T12:50:53;42.73;;;28.10;;
7683;SDS011;3884;48.616;12.872;2022-12-19T12:53:22;42.03;;;27.57;;
7683;SDS011;3884;48.616;12.872;2022-12-19T12:55:52;38.37;;;27.37;;
7683;SDS011;3884;48.616;12.872;2022-12-19T13:01:29;38.93;;;26.83;;
7683;SDS011;3884;48.616;12.872;2022-12-19T13:04:03;39.57;;;27.07;;
7683;SDS011;3884;48.616;12.872;2022-12-19T13:06:33;40.53;;;27.20;;
7683;SDS011;3884;48.616;12.872;2022-12-19T13:09:01;39.27;;;26.67;;
7683;SDS011;3884;48.616;12.872;2022-12-19T13:11:35;41.60;;;27.90;;
7683;SDS011;3884;48.616;12.872;2022-12-19T13:14:40;41.77;;;27.70;;
7683;SDS011;3884;48.616;12.872;2022-12-19T13:17:09;38.10;;;26.13;;
7683;SDS011;3884;48.616;12.872;2022-12-19T13:19:38;39.13;;;27.37;;
7683;SDS011;3884;48.616;12.872;2022-12-19T13:22:20;39.70;;;27.13;;
7683;SDS011;3884;48.616;12.872;2022-12-19T13:25:10;39.73;;;26.70;;
7683;SDS011;3884;48.616;12.872;2022-12-19T13:28:14;39.37;;;26.07;;
7683;SDS011;3884;48.616;12.872;2022-12-19T13:33:46;39.37;;;27.50;;
7683;SDS011;3884;48.616;12.872;2022-12-19T13:36:46;42.33;;;27.70;;
7683;SDS011;3884;48.616;12.872;2022-12-19T13:39:30;39.63;;;27.57;;
7683;SDS011;3884;48.616;12.872;2022-12-19T13:42:00;40.10;;;27.53;;
7683;SDS011;3884;48.616;12.872;2022-12-19T13:44:52;40.87;;;27.53;;
7683;SDS011;3884;48.616;12.872;2022-12-19T13:47:21;41.40;;;28.50;;
7683;SDS011;3884;48.616;12.872;2022-12-19T13:49:49;42.90;;;27.67;;
7683;SDS011;3884;48.616;12.872;2022-12-19T13:52:17;43.83;;;29.07;;
7683;SDS011;3884;48.616;12.872;2022-12-19T13:54:45;43.30;;;29.00;;
7683;SDS011;3884;48.616;12.872;2022-12-19T13:57:22;44.00;;;29.47;;
7683;SDS011;3884;48.616;12.872;2022-12-19T13:59:50;39.93;;;27.17;;
7683;SDS011;3884;48.616;12.872;2022-12-19T14:02:21;40.80;;;28.03;;
7683;SDS011;3884;48.616;12.872;2022-12-19T14:04:52;40.60;;;29.10;;
7683;SDS011;3884;48.616;12.872;2022-12-19T14:07:28;42.43;;;29.20;;
7683;SDS011;3884;48.616;12.872;2022-12-19T14:10:02;43.60;;;29.77;;
7683;SDS011;3884;48.616;12.872;2022-12-19T14:12:32;41.30;;;28.33;;
7683;SDS011;3884;48.616;12.872;2022-12-19T14:15:24;41.80;;;29.90;;
7683;SDS011;3884;48.616;12.872;2022-12-19T14:17:58;41.60;;;29.03;;
7683;SDS011;3884;48.616;12.872;2022-12-19T14:20:26;40.77;;;28.10;;
7683;SDS011;3884;48.616;12.872;2022-12-19T14:22:57;44.50;;;30.43;;
7683;SDS011;3884;48.616;12.872;2022-12-19T14:25:26;40.87;;;29.87;;
7683;SDS011;3884;48.616;12.872;2022-12-19T14:28:00;41.40;;;28.40;;
7683;SDS011;3884;48.616;12.872;2022-12-19T14:30:31;40.60;;;28.50;;
7683;SDS011;3884;48.616;12.872;2022-12-19T14:33:06;39.63;;;27.27;;
7683;SDS011;3884;48.616;12.872;2022-12-19T14:35:41;39.63;;;28.10;;
7683;SDS011;3884;48.616;12.872;2022-12-19T14:38:14;39.13;;;27.90;;
7683;SDS011;3884;48.616;12.872;2022-12-19T14:40:44;41.80;;;27.50;;
7683;SDS011;3884;48.616;12.872;2022-12-19T14:43:12;37.70;;;26.87;;
7683;SDS011;3884;48.616;12.872;2022-12-19T14:46:10;41.63;;;28.50;;
7683;SDS011;3884;48.616;12.872;2022-12-19T14:48:45;40.83;;;28.60;;
7683;SDS011;3884;48.616;12.872;2022-12-19T14:51:18;38.90;;;28.00;;
7683;SDS011;3884;48.616;12.872;2022-12-19T14:54:04;43.63;;;28.50;;
7683;SDS011;3884;48.616;12.872;2022-12-19T14:56:42;38.73;;;28.03;;
7683;SDS011;3884;48.616;12.872;2022-12-19T14:59:27;41.63;;;28.07;;
7683;SDS011;3884;48.616;12.872;2022-12-19T15:01:59;39.30;;;26.90;;
7683;SDS011;3884;48.616;12.872;2022-12-19T15:04:30;37.43;;;26.00;;
7683;SDS011;3884;48.616;12.872;2022-12-19T15:06:59;38.90;;;26.23;;
7683;SDS011;3884;48.616;12.872;2022-12-19T15:09:31;39.77;;;26.80;;
7683;SDS011;3884;48.616;12.872;2022-12-19T15:12:09;42.27;;;29.03;;
7683;SDS011;3884;48.616;12.872;2022-12-19T15:15:00;36.80;;;27.27;;